Greenville, SC (29614)

7:15 PM EST on February 21, 2017 (GMT -0500)
| | Change Station

Elev -9999 ft 0.00 °N, 0.00 °E | Updated

Overcast
Overcast
°F
Feels Like °F
N
Wind Variable Wind from North
Gusts mph

Today
High -- | Low -- °F
--% Chance of Precip.
Yesterday
High -- | Low -- °F
Precip. -- in
Pressure 30.07 in
Visibility 10.0 miles
Clouds Scattered Clouds 4500 ft
Overcast 6500 ft
Dew Point Not available.
Humidity Not available.
Rainfall --
Snow Depth Not available.
7:08 AM 6:18 PM
Waning Crescent, 21% visible
METAR KGMU 212353Z 11011KT 10SM SCT045 OVC065 18/09 A3008 RMK AO2 SLP183 T01830094 10206 20178 53003
Pressure 30.07 in
Visibility 10.0 miles
Clouds Scattered Clouds 4500 ft
Overcast 6500 ft
Dew Point Not available.
Humidity Not available.
Rainfall --
Snow Depth Not available.
7:08 AM 6:18 PM
Waning Crescent, 21% visible
METAR KGMU 212353Z 11011KT 10SM SCT045 OVC065 18/09 A3008 RMK AO2 SLP183 T01830094 10206 20178 53003

Get Your Daily Forecast Email!

Thanks for signing up!

Be on the lookout for a verification email in your inbox.

You'll start receiving the daily forecast at 8 AM.

×

10-Day Weather Forecast

Almanac

Astronomy

Feb. 21, 2017 Rise Set
Actual Time
Civil Twilight
Nautical Twilight
Astronomical Twilight
Moon
Length of Visible Light
Length of Day
Tomorrow will be .
, % of the Moon is Illuminated

Today's Extremes

State Highs State Lows

Community

WunderPhotos

Upload Photos

1,962,540 photos uploaded!

WunderBlog® & News

Nearby

Air Quality

  Air Quality AQ Index Pollutant
Not available.

Snow Depth

Station Depth Elevation

Earthquake Activity

City Distance Mag. Time & Date
Minimum magnitude displayed is 2.5.

Coastal Water Temperatures

Place Temperature

Stations

Nearby Weather Stations

Station Location Temp. Windchill Dew Point Humidity Wind Precip. Elev Updated Type
                   

Watches & Warnings

There are currently no watches in effect.